首页
METAR-TAF:

METAR-TAF

机场 :

巴特曼, 土耳其

纬度: 37-52N, 经度: 041-10E, 海拔: 540米

当前天气观测

该预报发布于44分钟前的11:20 UTC
静风
温度 11°C
湿度 66%
气压 1019 hPa
能见度10公里或以上
散云层高于4000英尺
多云层高于10000英尺

METAR: LTCJ 111120Z 00000KT 9999 SCT040 BKN100 11/05 Q1019 RMK RWY20 00000KT

时间: 15:04 (12:04 UTC)

预报

该预报发布于1小时和24分钟前的10:40 UTC
预报有效从11日的 12点(UTC)到 12日的 12点(UTC)
风速2节,风向多变
能见度10公里或以上
多云层高于4000英尺

TAF: LTCJ 111040Z 1112/1212 VRB02KT 9999 BKN040

超过4000个机场的气象观测和天气预报(METAR&TAF报告)。

可查询的气象台以黄色和红色小点在地图上表示。

将鼠标移到小点上方,可查看气象台名称。

然后点击查看天气观测和预报。

如需切换地图:点击带黑十字的绿色按钮放大地图;点击带横线的绿色按钮缩小地图;或者点击绿色箭头查看邻近地区的地图。


METAR-TAF: